Time;durP1;ratioP1;P1;durP2;ratioP2;P2;SDS_P1;SDS_P2;PMS_P1;PMS_P2;Temp;Humidity;BMP_temperature;BMP_pressure;BME280_temperature;BME280_humidity;BME280_pressure;Samples;Min_cycle;Max_cycle;Signal;HPM_P1;HPM_P2
2022/09/21 00:01:21;;;;;;;6.90;4.32;;;;;;;12.11;79.96;102370.28;3610953;39;20082;-64
2022/09/21 00:03:53;;;;;;;7.80;4.40;;;;;;;12.05;79.53;102378.66;3610221;39;20043;-64
2022/09/21 00:06:21;;;;;;;9.73;4.15;;;;;;;11.99;79.55;102368.16;3611840;39;20059;-63
2022/09/21 00:08:48;;;;;;;8.52;4.43;;;;;;;11.88;79.80;102367.72;3611670;39;20081;-64
2022/09/21 00:11:19;;;;;;;8.23;4.32;;;;;;;11.85;79.15;102366.91;3610360;39;20290;-64
2022/09/21 00:13:46;;;;;;;6.55;3.90;;;;;;;11.84;79.85;102367.84;3615310;39;20054;-64
2022/09/21 00:16:15;;;;;;;7.70;4.53;;;;;;;11.77;79.12;102358.25;3613881;39;20104;-64
2022/09/21 00:18:41;;;;;;;9.45;4.00;;;;;;;11.78;78.94;102367.22;3612843;39;20377;-62
2022/09/21 00:21:11;;;;;;;7.22;4.07;;;;;;;11.75;78.83;102370.03;3616884;39;20058;-64
2022/09/21 00:23:37;;;;;;;9.75;4.10;;;;;;;11.67;78.88;102383.84;3613607;39;20047;-62
2022/09/21 00:26:05;;;;;;;6.45;3.92;;;;;;;11.31;79.69;102325.13;3613879;39;20067;-63
2022/09/21 00:28:30;;;;;;;6.10;4.03;;;;;;;11.58;79.34;102376.13;3614854;39;20347;-63
2022/09/21 00:31:01;;;;;;;7.00;3.83;;;;;;;11.53;78.84;102384.38;3614840;39;20067;-64
2022/09/21 00:33:27;;;;;;;11.15;4.28;;;;;;;11.49;79.05;102382.75;3612142;39;20070;-63
2022/09/21 00:35:53;;;;;;;8.32;4.45;;;;;;;11.47;79.60;102378.38;3615628;39;20110;-64
2022/09/21 00:38:18;;;;;;;7.43;3.90;;;;;;;11.43;78.68;102383.00;3615097;39;20389;-64
2022/09/21 00:40:44;;;;;;;7.05;4.45;;;;;;;11.38;79.63;102380.50;3608974;39;20161;-64
2022/09/21 00:43:16;;;;;;;6.65;4.30;;;;;;;11.37;78.97;102389.50;3617186;39;20054;-63
2022/09/21 00:45:49;;;;;;;9.98;4.15;;;;;;;11.34;79.76;102378.88;3604783;39;20053;-63
2022/09/21 00:48:15;;;;;;;6.65;4.57;;;;;;;11.31;79.69;102378.97;3611833;39;20147;-64
2022/09/21 00:50:52;;;;;;;10.40;5.40;;;;;;;11.27;79.54;102380.06;3608192;39;20312;-63
2022/09/21 00:53:20;;;;;;;8.60;5.20;;;;;;;11.29;79.54;102380.88;3611279;39;20047;-63
2022/09/21 00:55:55;;;;;;;7.60;4.95;;;;;;;11.30;79.90;102382.63;3610205;39;20055;-63
2022/09/21 00:58:32;;;;;;;7.35;4.95;;;;;;;11.25;79.93;102379.22;3613027;39;20210;-63
2022/09/21 01:01:00;;;;;;;8.82;5.13;;;;;;;11.34;80.03;102384.25;3609336;39;20051;-64
2022/09/21 01:03:28;;;;;;;11.40;5.70;;;;;;;11.35;79.55;102379.72;3613474;39;20082;-63
2022/09/21 01:05:54;;;;;;;9.18;4.78;;;;;;;11.06;79.82;102321.69;3610212;39;20424;-64
2022/09/21 01:08:24;;;;;;;6.75;4.65;;;;;;;11.24;79.75;102358.63;3610880;39;20063;-63
2022/09/21 01:11:10;;;;;;;8.90;4.75;;;;;;;11.36;80.33;102376.13;3610820;39;20055;-62
2022/09/21 01:14:25;;;;;;;8.13;5.25;;;;;;;11.36;80.13;102382.38;3606648;39;20054;-64
2022/09/21 01:17:12;;;;;;;7.95;4.78;;;;;;;11.36;80.31;102382.38;3610896;39;20067;-63
2022/09/21 01:20:09;;;;;;;6.35;4.88;;;;;;;11.35;79.98;102379.72;3608892;39;20054;-63
2022/09/21 01:23:08;;;;;;;5.97;4.32;;;;;;;11.35;80.47;102396.78;3609919;39;20298;-64
2022/09/21 01:26:00;;;;;;;7.95;4.80;;;;;;;11.36;79.96;102382.38;3606011;39;20043;-62
2022/09/21 01:28:36;;;;;;;9.23;5.47;;;;;;;11.37;79.98;102383.25;3611968;39;20047;-64
2022/09/21 01:31:12;;;;;;;6.65;4.40;;;;;;;11.38;80.17;102380.50;3611293;39;20066;-63
2022/09/21 01:33:50;;;;;;;7.57;5.20;;;;;;;11.36;80.12;102382.38;3609651;39;20049;-64
2022/09/21 01:36:24;;;;;;;6.15;4.30;;;;;;;11.36;80.43;102386.91;3609714;39;20309;-63
2022/09/21 01:39:02;;;;;;;6.55;5.13;;;;;;;11.33;80.97;102381.63;3609292;39;20067;-64
2022/09/21 01:41:31;;;;;;;6.07;4.68;;;;;;;11.35;81.02;102380.63;3610071;39;20194;-63
2022/09/21 01:44:09;;;;;;;7.82;4.90;;;;;;;11.38;80.18;102379.63;3611694;39;20043;-63
2022/09/21 01:46:37;;;;;;;7.10;4.72;;;;;;;11.41;80.71;102379.50;3611706;39;20051;-63
2022/09/21 01:49:19;;;;;;;8.95;5.10;;;;;;;11.41;79.82;102374.09;3610917;39;20058;-64
2022/09/21 01:51:58;;;;;;;8.43;4.68;;;;;;;11.36;80.18;102370.75;3610583;39;20396;-63
2022/09/21 01:54:38;;;;;;;9.77;4.68;;;;;;;11.29;80.46;102378.19;3612069;39;20745;-63
2022/09/21 01:57:33;;;;;;;8.20;4.75;;;;;;;11.27;80.81;102377.38;3611245;39;20094;-62
2022/09/21 02:00:00;;;;;;;10.45;5.30;;;;;;;11.28;80.68;102373.72;3612506;39;20058;-64
2022/09/21 02:02:52;;;;;;;7.15;4.80;;;;;;;11.30;81.23;102370.97;3612730;39;20065;-63
2022/09/21 02:05:22;;;;;;;6.90;4.63;;;;;;;11.34;81.09;102373.47;3610529;39;20047;-62
2022/09/21 02:07:51;;;;;;;7.25;4.85;;;;;;;11.37;79.83;102372.47;3608548;39;20527;-64
2022/09/21 02:10:47;;;;;;;5.80;4.60;;;;;;;11.35;79.95;102375.25;3612925;39;20536;-64
2022/09/21 02:13:15;;;;;;;7.82;4.80;;;;;;;11.34;79.91;102373.47;3612519;39;20063;-64
2022/09/21 02:16:06;;;;;;;5.95;4.80;;;;;;;11.27;80.37;102376.50;3610102;39;20054;-63
2022/09/21 02:18:57;;;;;;;12.43;4.93;;;;;;;11.24;80.38;102377.47;3598877;39;20322;-63
2022/09/21 02:21:50;;;;;;;5.63;4.63;;;;;;;11.20;79.46;102375.84;3610528;39;20043;-63
2022/09/21 02:24:40;;;;;;;5.72;4.53;;;;;;;11.20;80.68;102377.69;3608196;39;20066;-63
2022/09/21 02:27:15;;;;;;;9.07;4.90;;;;;;;11.18;80.17;102372.34;3613907;39;20054;-63
2022/09/21 02:30:17;;;;;;;6.70;4.43;;;;;;;11.14;80.09;102379.66;3611769;39;20042;-63
2022/09/21 02:33:13;;;;;;;8.52;4.63;;;;;;;11.08;79.74;102373.66;3611530;39;20921;-63
2022/09/21 02:35:58;;;;;;;8.90;4.55;;;;;;;11.04;79.21;102374.72;3613278;39;20054;-64
2022/09/21 02:38:39;;;;;;;6.10;4.18;;;;;;;11.00;79.35;102378.44;3613851;39;20042;-64
2022/09/21 02:41:15;;;;;;;5.97;4.60;;;;;;;10.95;79.43;102384.00;3607001;39;20086;-64
2022/09/21 02:44:04;;;;;;;6.93;4.45;;;;;;;10.86;79.10;102371.78;3601822;39;20305;-63
2022/09/21 02:46:58;;;;;;;7.20;4.80;;;;;;;10.80;79.43;102377.38;3612249;39;20051;-64
2022/09/21 02:49:37;;;;;;;4.93;4.13;;;;;;;10.77;79.90;102372.13;3608856;39;20096;-62
2022/09/21 02:52:13;;;;;;;6.38;4.10;;;;;;;10.74;79.49;102377.63;3609205;39;20333;-63
2022/09/21 02:54:46;;;;;;;4.82;4.20;;;;;;;10.72;78.81;102371.44;3609453;39;20051;-62
2022/09/21 02:57:17;;;;;;;6.72;3.85;;;;;;;10.69;78.77;102371.56;3609868;39;20063;-62
2022/09/21 02:59:43;;;;;;;6.93;4.22;;;;;;;10.67;79.03;102368.03;3610608;39;20063;-63
2022/09/21 03:02:11;;;;;;;6.50;4.85;;;;;;;10.63;79.77;102375.34;3610961;39;20573;-63
2022/09/21 03:04:40;;;;;;;7.78;4.90;;;;;;;10.60;79.94;102374.59;3616080;39;20407;-64
2022/09/21 03:07:08;;;;;;;7.43;4.53;;;;;;;10.54;80.47;102370.31;3609211;39;20769;-63
2022/09/21 03:09:34;;;;;;;6.18;4.60;;;;;;;10.53;80.84;102373.94;3612311;39;20186;-70
2022/09/21 03:12:01;;;;;;;7.32;4.72;;;;;;;10.52;80.31;102373.97;3608169;39;20131;-63
2022/09/21 03:14:26;;;;;;;6.13;4.68;;;;;;;10.48;80.35;102383.09;3610131;39;20055;-63
2022/09/21 03:16:53;;;;;;;5.25;4.57;;;;;;;10.43;80.85;102386.84;3608721;39;20058;-63
2022/09/21 03:19:19;;;;;;;8.48;4.97;;;;;;;10.39;80.36;102377.09;3612146;39;20051;-63
2022/09/21 03:21:44;;;;;;;5.70;4.50;;;;;;;10.42;80.64;102379.69;3610156;39;20396;-65
2022/09/21 03:24:10;;;;;;;8.43;4.78;;;;;;;10.42;79.81;102382.38;3608028;39;20385;-63
2022/09/21 03:26:35;;;;;;;7.90;4.47;;;;;;;10.40;80.54;102384.25;3610040;39;20054;-62
2022/09/21 03:29:02;;;;;;;6.57;5.00;;;;;;;10.26;80.31;102359.69;3609243;39;20058;-63
2022/09/21 03:31:28;;;;;;;7.80;4.40;;;;;;;10.39;79.96;102379.78;3609805;39;20067;-63
2022/09/21 03:33:54;;;;;;;4.95;4.20;;;;;;;10.38;80.59;102385.25;3613398;39;20346;-63
2022/09/21 03:36:20;;;;;;;10.63;4.38;;;;;;;10.37;79.46;102381.69;3607354;39;20452;-64
2022/09/21 03:38:45;;;;;;;6.88;4.40;;;;;;;10.34;79.49;102395.22;3611858;39;20055;-64
2022/09/21 03:41:14;;;;;;;4.93;4.05;;;;;;;10.34;79.89;102389.84;3608269;39;20069;-63
2022/09/21 03:43:39;;;;;;;6.97;4.35;;;;;;;10.31;80.24;102384.59;3611703;39;20300;-63
2022/09/21 03:46:05;;;;;;;4.32;3.72;;;;;;;10.36;80.31;102403.22;3608838;39;20104;-63
2022/09/21 03:48:31;;;;;;;8.20;4.43;;;;;;;10.07;79.68;102348.66;3611573;39;20066;-64
2022/09/21 03:50:57;;;;;;;5.63;4.03;;;;;;;10.35;79.33;102396.97;3611333;39;20385;-63
2022/09/21 03:53:23;;;;;;;6.22;4.25;;;;;;;10.33;79.29;102397.97;3612956;39;20051;-64
2022/09/21 03:55:48;;;;;;;6.50;4.05;;;;;;;10.33;79.46;102400.66;3611229;39;20115;-62
2022/09/21 03:58:14;;;;;;;6.18;3.80;;;;;;;10.31;78.87;102403.41;3607981;39;20074;-63
2022/09/21 04:00:41;;;;;;;7.88;4.47;;;;;;;10.31;79.54;102398.03;3611202;39;20055;-65
2022/09/21 04:03:06;;;;;;;6.75;4.35;;;;;;;10.33;79.01;102401.53;3609531;39;20042;-63
2022/09/21 04:05:32;;;;;;;6.32;4.43;;;;;;;10.34;79.21;102400.63;3610156;39;20061;-63
2022/09/21 04:08:00;;;;;;;5.85;4.40;;;;;;;10.32;79.58;102402.47;3607423;39;21261;-62
2022/09/21 04:10:32;;;;;;;5.60;4.20;;;;;;;10.13;79.79;102363.72;3608834;39;20151;-63
2022/09/21 04:13:02;;;;;;;5.00;4.25;;;;;;;10.33;79.72;102393.47;3609622;39;20267;-63
2022/09/21 04:15:28;;;;;;;8.55;4.95;;;;;;;10.32;80.19;102399.78;3609538;39;20096;-63
2022/09/21 04:17:54;;;;;;;11.48;4.68;;;;;;;10.30;80.06;102398.94;3609993;39;20046;-62
2022/09/21 04:20:21;;;;;;;9.05;4.32;;;;;;;10.32;79.76;102397.09;3610633;39;20120;-65
2022/09/21 04:22:47;;;;;;;6.45;4.30;;;;;;;10.32;80.20;102391.72;3609345;39;20074;-64
2022/09/21 04:25:14;;;;;;;5.53;4.47;;;;;;;10.31;79.65;102398.03;3605839;39;20043;-62
2022/09/21 04:27:41;;;;;;;6.32;4.40;;;;;;;10.31;79.83;102400.72;3609192;39;20055;-62
2022/09/21 04:30:10;;;;;;;7.18;4.65;;;;;;;10.30;79.88;102396.25;3611283;39;20046;-63
2022/09/21 04:32:36;;;;;;;6.65;4.60;;;;;;;10.35;80.22;102401.47;3610073;39;20381;-63
2022/09/21 04:35:02;;;;;;;7.93;4.28;;;;;;;10.26;79.59;102391.03;3608313;39;20103;-63
2022/09/21 04:37:27;;;;;;;7.70;4.13;;;;;;;10.27;79.71;102393.69;3611928;39;20054;-63
2022/09/21 04:39:53;;;;;;;5.57;4.22;;;;;;;10.32;80.26;102407.84;3610812;39;21771;-63
2022/09/21 04:42:18;;;;;;;6.68;4.40;;;;;;;10.31;80.33;102406.09;3610604;39;21444;-63
2022/09/21 04:44:44;;;;;;;8.10;4.53;;;;;;;10.27;79.92;102401.75;3607614;39;20063;-63
2022/09/21 04:47:10;;;;;;;6.18;5.00;;;;;;;10.33;79.77;102408.72;3612172;39;20070;-63
2022/09/21 04:49:35;;;;;;;9.77;5.07;;;;;;;10.33;80.19;102408.72;3610870;39;20061;-65
2022/09/21 04:52:01;;;;;;;6.18;4.93;;;;;;;10.27;80.25;102399.06;3612167;39;20055;-63
2022/09/21 04:54:27;;;;;;;6.22;4.88;;;;;;;10.29;81.10;102413.31;3611106;39;20062;-62
2022/09/21 04:56:53;;;;;;;6.53;4.63;;;;;;;10.31;80.48;102411.47;3611599;39;20055;-63
2022/09/21 04:59:18;;;;;;;7.80;4.68;;;;;;;10.34;80.63;102406.00;3608660;39;20059;-65
2022/09/21 05:01:44;;;;;;;5.47;4.93;;;;;;;10.36;79.59;102413.97;3610417;39;20308;-63
2022/09/21 05:04:09;;;;;;;9.55;5.40;;;;;;;10.37;80.50;102416.63;3604125;39;20050;-63
2022/09/21 05:06:35;;;;;;;8.80;6.05;;;;;;;10.39;80.31;102406.69;3616203;39;20058;-63
2022/09/21 05:11:45;;;;;;;14.77;7.15;;;;;;;10.37;80.45;102411.25;3612949;39;20058;-64
2022/09/21 05:14:11;;;;;;;13.43;7.40;;;;;;;10.35;81.21;102413.09;3609085;39;20071;-63
2022/09/21 05:16:37;;;;;;;14.52;7.60;;;;;;;10.32;81.27;102412.34;3614532;39;20062;-63
2022/09/21 05:19:03;;;;;;;13.57;6.93;;;;;;;10.34;81.77;102416.75;3611201;39;20066;-63
2022/09/21 05:21:30;;;;;;;16.23;7.00;;;;;;;10.21;81.59;102388.47;3611778;39;20052;-63
2022/09/21 05:23:57;;;;;;;13.80;7.55;;;;;;;10.39;81.37;102420.13;3609372;39;20273;-64
2022/09/21 05:26:23;;;;;;;16.23;7.60;;;;;;;10.41;81.20;102418.28;3610155;39;20472;-64
2022/09/21 05:28:49;;;;;;;12.02;7.05;;;;;;;10.39;81.26;102419.25;3611854;39;20082;-64
2022/09/21 05:31:39;;;;;;;12.48;7.30;;;;;;;10.38;80.65;102418.38;3610809;39;20406;-63
2022/09/21 05:34:32;;;;;;;12.18;7.13;;;;;;;10.35;80.65;102423.84;3610388;39;20055;-64
2022/09/21 05:37:24;;;;;;;15.52;7.13;;;;;;;10.34;81.37;102418.53;3611978;39;20381;-64
2022/09/21 05:39:49;;;;;;;15.23;7.22;;;;;;;10.37;80.72;102430.06;3610544;39;20043;-65
2022/09/21 05:42:15;;;;;;;11.52;7.15;;;;;;;10.37;80.75;102426.47;3610649;39;20726;-64
2022/09/21 05:44:41;;;;;;;14.20;7.55;;;;;;;10.42;80.46;102432.59;3609777;39;20057;-64
2022/09/21 05:47:23;;;;;;;13.15;6.80;;;;;;;10.42;79.88;102429.91;3611490;39;20130;-65
2022/09/21 05:50:20;;;;;;;10.85;7.28;;;;;;;10.46;80.68;102436.91;3610371;39;20067;-64
2022/09/21 05:53:09;;;;;;;10.95;7.03;;;;;;;10.47;80.50;102437.81;3611253;39;20337;-64
2022/09/21 05:56:02;;;;;;;11.93;7.78;;;;;;;10.34;80.17;102415.84;3612071;39;20059;-63
2022/09/21 05:59:24;;;;;;;13.90;8.23;;;;;;;10.50;80.65;102440.38;3612587;39;20050;-64
2022/09/21 06:02:36;;;;;;;13.75;7.30;;;;;;;10.52;80.04;102447.44;3605895;39;20307;-64
2022/09/21 06:05:10;;;;;;;15.02;7.50;;;;;;;10.55;80.56;102451.84;3609807;39;20129;-66
2022/09/21 06:07:36;;;;;;;13.50;7.22;;;;;;;10.53;80.39;102445.63;3610294;39;20063;-63
2022/09/21 06:10:01;;;;;;;12.30;7.63;;;;;;;10.56;80.91;102454.50;3610377;39;20267;-63
2022/09/21 06:12:27;;;;;;;25.73;17.50;;;;;;;10.57;81.25;102452.69;3610888;39;20417;-64
2022/09/21 06:14:55;;;;;;;22.13;13.00;;;;;;;10.57;81.04;102452.69;3606789;39;20402;-64
2022/09/21 06:17:21;;;;;;;18.48;11.88;;;;;;;10.60;80.74;102457.94;3608530;39;20059;-64
2022/09/21 06:19:47;;;;;;;16.38;10.23;;;;;;;10.63;80.83;102460.53;3609940;39;20057;-64
2022/09/21 06:22:13;;;;;;;14.35;8.85;;;;;;;10.64;81.38;102459.59;3612083;39;20051;-64
2022/09/21 06:24:38;;;;;;;16.13;8.30;;;;;;;10.66;81.03;102457.72;3610512;39;20126;-65
2022/09/21 06:27:04;;;;;;;16.83;9.27;;;;;;;10.69;81.15;102463.00;3610179;39;20059;-64
2022/09/21 06:29:30;;;;;;;11.30;8.55;;;;;;;10.71;81.12;102463.81;3610321;39;20129;-64
2022/09/21 06:31:56;;;;;;;15.38;9.23;;;;;;;10.74;80.54;102458.31;3606070;39;20062;-64
2022/09/21 06:34:21;;;;;;;15.20;9.20;;;;;;;10.78;80.80;102454.56;3611310;39;20893;-63
2022/09/21 06:36:47;;;;;;;16.35;10.25;;;;;;;10.82;81.18;102458.06;3610926;39;20054;-64
2022/09/21 06:39:12;;;;;;;13.60;9.13;;;;;;;10.86;80.74;102462.38;3608442;39;20063;-63
2022/09/21 06:41:38;;;;;;;11.57;10.15;;;;;;;10.92;80.21;102463.03;3611820;39;20066;-63
2022/09/21 06:44:04;;;;;;;13.77;9.73;;;;;;;10.97;80.50;102465.53;3608015;39;20309;-63
2022/09/21 06:46:29;;;;;;;12.27;9.45;;;;;;;10.98;80.06;102450.28;3613002;39;20049;-64
2022/09/21 06:48:55;;;;;;;14.65;9.43;;;;;;;11.06;80.64;102458.94;3612134;39;20086;-64
2022/09/21 06:51:22;;;;;;;13.52;8.38;;;;;;;11.09;79.99;102457.00;3606401;39;20066;-63
2022/09/21 06:53:48;;;;;;;14.80;9.48;;;;;;;11.17;80.67;102455.84;3601209;39;20381;-63
2022/09/21 06:56:15;;;;;;;14.18;8.90;;;;;;;11.00;80.63;102416.97;3610575;39;20070;-64
2022/09/21 06:58:40;;;;;;;13.77;9.38;;;;;;;11.35;80.45;102461.41;3601603;39;20366;-64
2022/09/21 07:01:10;;;;;;;13.82;9.25;;;;;;;11.46;80.11;102462.78;3608881;39;20043;-65
2022/09/21 07:03:38;;;;;;;12.43;8.80;;;;;;;10.85;79.97;102331.50;3611217;39;20063;-64
2022/09/21 07:06:05;;;;;;;12.45;8.07;;;;;;;11.75;78.96;102465.19;3610856;39;20042;-64
2022/09/21 07:08:32;;;;;;;20.25;7.93;;;;;;;11.94;79.49;102459.09;3611581;39;20059;-63
2022/09/21 07:10:59;;;;;;;14.75;8.20;;;;;;;12.16;78.31;102454.56;3610947;39;20098;-63
2022/09/21 07:13:25;;;;;;;13.63;7.78;;;;;;;12.41;77.52;102464.28;3611655;39;20131;-63
2022/09/21 07:15:51;;;;;;;12.00;8.00;;;;;;;12.54;76.29;102450.19;3612221;39;20057;-63
2022/09/21 07:18:17;;;;;;;11.25;8.02;;;;;;;12.87;75.17;102463.13;3610091;39;20083;-64
2022/09/21 07:20:42;;;;;;;11.02;7.30;;;;;;;13.15;75.76;102461.84;3610586;39;20061;-63
2022/09/21 07:23:14;;;;;;;9.18;6.50;;;;;;;13.39;73.72;102466.16;3609611;39;20063;-63
2022/09/21 07:25:47;;;;;;;10.27;6.05;;;;;;;13.67;72.70;102457.59;3610459;39;20063;-65
2022/09/21 07:28:13;;;;;;;7.97;5.88;;;;;;;13.85;71.14;102461.22;3611118;39;20394;-63
2022/09/21 07:30:39;;;;;;;11.55;5.30;;;;;;;14.03;69.78;102462.13;3609240;39;20045;-64
2022/09/21 07:33:06;;;;;;;13.40;6.30;;;;;;;14.17;71.01;102456.00;3608408;39;20274;-64
2022/09/21 07:35:32;;;;;;;8.15;5.10;;;;;;;14.27;69.72;102453.72;3608680;39;20108;-64
2022/09/21 07:38:06;;;;;;;11.13;5.25;;;;;;;14.35;68.70;102451.50;3610246;39;20061;-64
2022/09/21 07:40:33;;;;;;;9.35;5.05;;;;;;;14.33;69.80;102429.03;3609691;39;20115;-64
2022/09/21 07:43:03;;;;;;;7.53;5.43;;;;;;;14.62;69.73;102460.94;3612685;39;20066;-64
2022/09/21 07:45:30;;;;;;;10.23;4.88;;;;;;;14.79;69.35;102459.16;3609870;39;20362;-63
2022/09/21 07:48:05;;;;;;;6.68;3.75;;;;;;;14.91;65.35;102461.19;3612213;39;20333;-63
2022/09/21 07:50:33;;;;;;;10.85;4.20;;;;;;;14.94;65.18;102461.03;3608278;39;20587;-64
2022/09/21 07:53:00;;;;;;;8.60;4.30;;;;;;;14.96;65.86;102450.09;3608380;39;20150;-65
2022/09/21 07:55:27;;;;;;;6.28;3.75;;;;;;;14.94;64.83;102455.63;3609146;39;20051;-63
2022/09/21 08:00:37;;;;;;;14.48;7.60;;;;;;;14.90;65.18;102426.94;3618086;39;20053;-63
2022/09/21 08:03:03;;;;;;;18.38;10.27;;;;;;;15.23;63.95;102461.28;3607144;39;20048;-64
2022/09/21 08:05:30;;;;;;;6.93;3.58;;;;;;;15.42;63.85;102453.88;3604482;39;20043;-64
2022/09/21 08:07:56;;;;;;;4.55;2.80;;;;;;;15.55;61.06;102449.50;3606262;39;20047;-64
2022/09/21 08:10:26;;;;;;;6.38;3.00;;;;;;;15.70;61.77;102455.06;3607907;39;20066;-66
2022/09/21 08:12:53;;;;;;;6.85;3.10;;;;;;;15.95;60.99;102454.47;3606224;39;20055;-63
2022/09/21 08:15:18;;;;;;;6.25;2.95;;;;;;;16.08;60.68;102438.34;3610931;39;20289;-64
2022/09/21 08:17:44;;;;;;;3.80;2.75;;;;;;;16.23;59.58;102440.16;3608644;39;20131;-63
2022/09/21 08:20:10;;;;;;;6.65;2.83;;;;;;;16.45;59.01;102442.44;3603727;39;20055;-64
2022/09/21 08:22:36;;;;;;;6.57;4.10;;;;;;;16.65;57.50;102457.50;3606872;39;20047;-64
2022/09/21 08:25:03;;;;;;;5.43;2.72;;;;;;;16.88;58.58;102456.13;3610071;39;20053;-64
2022/09/21 08:27:29;;;;;;;29.27;18.10;;;;;;;16.99;57.26;102452.72;3610544;39;20067;-63
2022/09/21 08:29:55;;;;;;;64.10;36.88;;;;;;;17.14;57.06;102457.22;3608629;39;20047;-63
2022/09/21 08:32:20;;;;;;;7.25;2.88;;;;;;;17.26;55.05;102455.56;3604520;39;20394;-64
2022/09/21 08:34:46;;;;;;;7.43;2.83;;;;;;;17.36;54.35;102457.56;3608360;39;20286;-64
2022/09/21 08:37:11;;;;;;;5.95;2.28;;;;;;;17.55;53.79;102464.53;3605694;39;20067;-64
2022/09/21 08:39:37;;;;;;;4.63;2.63;;;;;;;17.60;52.45;102448.78;3609544;39;20051;-65
2022/09/21 08:42:37;;;;;;;6.03;2.67;;;;;;;17.86;52.34;102458.00;3607277;39;20081;-65
2022/09/21 08:45:15;;;;;;;5.25;2.50;;;;;;;18.00;52.03;102448.91;3609076;39;20126;-65
2022/09/21 08:47:48;;;;;;;4.80;2.47;;;;;;;18.25;52.41;102457.13;3607992;39;20050;-65
2022/09/21 08:50:33;;;;;;;5.97;2.38;;;;;;;18.38;50.56;102464.47;3607778;39;20094;-65
2022/09/21 08:53:14;;;;;;;8.65;1.85;;;;;;;18.50;48.83;102455.47;3610495;39;20161;-64
2022/09/21 08:55:40;;;;;;;4.60;2.00;;;;;;;18.68;49.16;102459.63;3604206;39;20379;-64
2022/09/21 08:58:24;;;;;;;4.63;1.92;;;;;;;18.60;49.58;102417.56;3608629;39;20114;-65
2022/09/21 09:01:30;;;;;;;4.35;1.92;;;;;;;19.06;48.16;102469.69;3610341;39;20087;-64
2022/09/21 09:04:15;;;;;;;6.85;2.30;;;;;;;19.00;47.86;102464.69;3607818;39;20357;-65
2022/09/21 09:07:08;;;;;;;4.15;2.03;;;;;;;19.11;46.94;102466.63;3607183;39;20047;-64
2022/09/21 09:10:18;;;;;;;13.07;7.13;;;;;;;19.20;48.24;102464.09;3605122;39;20081;-64
2022/09/21 09:13:31;;;;;;;3.97;1.50;;;;;;;19.49;46.72;102472.03;3594021;39;20060;-65
2022/09/21 09:16:26;;;;;;;3.42;1.38;;;;;;;19.58;47.87;102470.47;3607768;39;20085;-64
2022/09/21 09:19:02;;;;;;;2.90;1.45;;;;;;;19.75;46.44;102477.44;3605790;39;20043;-64
2022/09/21 09:21:39;;;;;;;4.22;1.30;;;;;;;19.79;46.28;102473.47;3608231;39;20059;-64
2022/09/21 09:24:23;;;;;;;4.32;1.48;;;;;;;19.82;44.47;102476.88;3609719;39;20120;-64
2022/09/21 09:27:15;;;;;;;3.38;1.42;;;;;;;20.13;46.93;102467.22;3609818;39;20054;-64
2022/09/21 09:30:03;;;;;;;3.38;1.08;;;;;;;20.41;45.95;102470.56;3600760;39;20083;-65
2022/09/21 09:32:57;;;;;;;2.47;1.45;;;;;;;20.55;44.47;102464.94;3606918;39;20051;-65
2022/09/21 09:35:35;;;;;;;4.40;1.27;;;;;;;20.38;44.50;102466.22;3587889;39;20058;-64
2022/09/21 09:38:41;;;;;;;3.75;1.40;;;;;;;20.36;44.90;102470.03;3608359;39;20397;-64
2022/09/21 09:41:21;;;;;;;7.38;2.00;;;;;;;20.59;45.02;102473.78;3609383;39;20058;-65
2022/09/21 09:44:23;;;;;;;4.53;1.50;;;;;;;20.66;43.02;102471.44;3607010;39;20048;-64
2022/09/21 09:47:12;;;;;;;5.50;1.20;;;;;;;20.64;43.14;102475.13;3605350;39;20320;-64
2022/09/21 09:50:01;;;;;;;4.50;1.10;;;;;;;20.64;43.03;102422.34;3604851;39;20066;-65
2022/09/21 09:52:26;;;;;;;3.35;1.27;;;;;;;21.19;41.91;102471.75;3608478;39;20058;-64
2022/09/21 09:54:53;;;;;;;4.20;1.00;;;;;;;21.33;42.78;102468.75;3609163;39;20044;-65
2022/09/21 09:57:29;;;;;;;3.05;1.13;;;;;;;21.44;39.86;102466.06;3607295;39;20048;-64
2022/09/21 10:00:04;;;;;;;2.45;0.80;;;;;;;21.49;39.58;102480.22;3609213;39;20404;-64
2022/09/21 10:02:30;;;;;;;2.70;0.63;;;;;;;21.28;38.11;102462.78;3606877;39;20415;-64
2022/09/21 10:05:06;;;;;;;3.47;1.00;;;;;;;21.37;40.07;102473.00;3605465;39;20051;-64
2022/09/21 10:07:38;;;;;;;2.22;0.85;;;;;;;21.23;38.19;102467.78;3606614;39;20304;-64
2022/09/21 10:10:40;;;;;;;3.50;1.00;;;;;;;20.79;40.00;102469.47;3608307;39;20043;-64
2022/09/21 10:13:22;;;;;;;3.60;1.20;;;;;;;20.10;41.45;102420.19;3602425;39;20077;-64
2022/09/21 10:15:59;;;;;;;5.40;1.27;;;;;;;20.05;40.84;102466.94;3607506;39;20086;-65
2022/09/21 10:18:51;;;;;;;3.17;1.30;;;;;;;19.81;40.96;102472.38;3606529;39;20047;-64
2022/09/21 10:21:39;;;;;;;3.33;1.13;;;;;;;19.50;41.57;102468.28;3609838;39;20164;-64
2022/09/21 10:24:23;;;;;;;7.97;1.95;;;;;;;19.29;43.28;102462.56;3606826;39;20038;-64
2022/09/21 10:27:09;;;;;;;;;;;;;;;19.08;41.39;102462.25;3614870;39;20050;-64
2022/09/21 10:29:48;;;;;;;4.22;1.10;;;;;;;18.95;42.72;102461.41;3608920;39;19939;-64
2022/09/21 10:32:22;;;;;;;3.47;0.90;;;;;;;18.82;44.53;102460.53;3604998;39;20067;-64
2022/09/21 10:35:09;;;;;;;3.35;1.00;;;;;;;18.75;42.16;102458.25;3609620;39;20051;-64
2022/09/21 10:37:45;;;;;;;2.60;0.70;;;;;;;18.77;42.68;102453.56;3605514;39;20051;-65
2022/09/21 10:40:16;;;;;;;3.20;0.98;;;;;;;19.25;40.55;102448.31;3608366;39;20097;-65
2022/09/21 10:42:43;;;;;;;2.95;0.98;;;;;;;19.82;39.96;102459.59;3606031;39;20387;-65
2022/09/21 10:45:28;;;;;;;2.65;0.80;;;;;;;20.24;37.94;102457.34;3607352;39;21787;-64
2022/09/21 10:48:20;;;;;;;1.65;0.80;;;;;;;20.68;35.67;102444.84;3605719;39;20043;-64
2022/09/21 10:50:49;;;;;;;2.22;0.63;;;;;;;21.14;35.43;102446.63;3609823;39;20061;-65
2022/09/21 10:53:33;;;;;;;2.45;0.70;;;;;;;21.44;35.65;102427.75;3608733;39;20394;-64
2022/09/21 10:56:03;;;;;;;;;;;;;;;21.86;34.57;102444.31;3607386;39;20066;-65
2022/09/21 10:58:31;;;;;;;4.78;1.38;;;;;;;22.22;37.35;102447.69;3605987;39;20015;-65
2022/09/21 11:01:12;;;;;;;2.35;1.08;;;;;;;22.43;39.86;102448.59;3608184;39;20124;-65
2022/09/21 11:03:56;;;;;;;5.72;1.67;;;;;;;22.70;39.32;102452.66;3606060;39;20051;-64
2022/09/21 11:06:44;;;;;;;5.25;1.50;;;;;;;22.82;38.91;102448.00;3608212;39;20050;-64
2022/09/21 11:09:32;;;;;;;2.13;1.00;;;;;;;23.21;37.90;102442.72;3606125;39;20152;-65
2022/09/21 11:12:12;;;;;;;4.22;1.23;;;;;;;23.42;34.46;102456.38;3606833;39;20247;-65
2022/09/21 11:15:02;;;;;;;4.65;1.45;;;;;;;23.45;34.67;102445.13;3606485;39;20090;-64
2022/09/21 11:17:53;;;;;;;2.65;1.10;;;;;;;23.59;35.21;102452.97;3607780;39;20091;-64
2022/09/21 11:20:50;;;;;;;5.68;1.00;;;;;;;23.94;34.89;102437.88;3607249;39;20341;-65
2022/09/21 11:23:28;;;;;;;4.97;1.25;;;;;;;23.89;34.08;102442.94;3606146;39;20233;-65
2022/09/21 11:25:59;;;;;;;3.40;1.13;;;;;;;23.28;33.97;102444.78;3608457;39;20128;-64
2022/09/21 11:28:58;;;;;;;3.53;1.20;;;;;;;22.31;35.67;102404.97;3606181;39;20402;-65
2022/09/21 11:31:46;;;;;;;2.80;1.20;;;;;;;21.69;36.95;102442.13;3605948;39;20120;-65
2022/09/21 11:34:57;;;;;;;5.43;1.40;;;;;;;21.01;38.83;102436.69;3609592;39;20063;-64
2022/09/21 11:38:13;;;;;;;4.10;1.60;;;;;;;20.62;39.74;102433.41;3606479;39;20063;-64
2022/09/21 11:41:19;;;;;;;5.57;1.15;;;;;;;20.45;40.48;102430.22;3607407;39;20378;-65
2022/09/21 11:44:18;;;;;;;6.22;1.52;;;;;;;21.26;41.24;102426.50;3605778;39;20385;-66
2022/09/21 11:47:15;;;;;;;3.05;1.17;;;;;;;21.90;40.13;102387.44;3608483;39;20053;-65
2022/09/21 11:50:08;;;;;;;1.88;0.75;;;;;;;22.83;38.09;102425.91;3606933;39;20066;-65
2022/09/21 11:53:00;;;;;;;4.70;0.90;;;;;;;23.04;36.98;102411.31;3608966;39;20401;-65
2022/09/21 11:56:12;;;;;;;2.08;1.05;;;;;;;22.41;34.61;102416.84;3604185;39;20433;-65
2022/09/21 11:59:20;;;;;;;2.63;1.10;;;;;;;22.45;35.11;102413.72;3603851;39;20112;-65
2022/09/21 12:02:17;;;;;;;3.53;1.33;;;;;;;22.11;36.78;102423.09;3584835;39;20047;-65
2022/09/21 12:05:22;;;;;;;4.03;0.80;;;;;;;21.70;37.01;102416.50;3605037;39;20047;-65
2022/09/21 12:08:20;;;;;;;4.28;0.90;;;;;;;21.97;34.96;102416.88;3609196;39;20095;-64